createdAt,value
2022-12-17T00:02:27.361Z,14.48
2022-12-17T00:05:12.651Z,13.88
2022-12-17T00:07:58.298Z,13.82
2022-12-17T00:10:43.918Z,13.90
2022-12-17T00:13:41.128Z,12.95
2022-12-17T00:16:26.971Z,13.82
2022-12-17T00:19:12.168Z,13.93
2022-12-17T00:21:57.683Z,13.55
2022-12-17T00:24:43.235Z,13.48
2022-12-17T00:27:28.471Z,14.52
2022-12-17T00:30:13.976Z,12.77
2022-12-17T00:32:59.454Z,12.02
2022-12-17T00:35:44.980Z,13.55
2022-12-17T00:38:37.690Z,12.45
2022-12-17T00:41:23.617Z,12.27
2022-12-17T00:44:09.035Z,13.02
2022-12-17T00:46:55.147Z,13.00
2022-12-17T00:49:40.900Z,12.98
2022-12-17T00:52:26.418Z,13.32
2022-12-17T00:55:11.847Z,12.73
2022-12-17T00:57:57.361Z,13.00
2022-12-17T01:00:42.972Z,12.90
2022-12-17T01:03:31.453Z,13.38
2022-12-17T01:06:21.926Z,13.48
2022-12-17T01:09:07.514Z,13.80
2022-12-17T01:11:53.064Z,13.38
2022-12-17T01:14:43.480Z,11.82
2022-12-17T01:17:29.720Z,12.13
2022-12-17T01:20:15.411Z,13.57
2022-12-17T01:23:00.859Z,12.88
2022-12-17T01:25:46.357Z,12.75
2022-12-17T01:28:31.887Z,12.98
2022-12-17T01:31:17.606Z,11.52
2022-12-17T01:34:02.876Z,12.57
2022-12-17T01:36:48.281Z,14.35
2022-12-17T01:39:33.811Z,13.15
2022-12-17T01:42:19.247Z,12.55
2022-12-17T01:45:13.331Z,12.07
2022-12-17T01:48:14.926Z,13.70
2022-12-17T01:51:07.485Z,12.27
2022-12-17T01:53:57.188Z,13.55
2022-12-17T01:56:42.833Z,13.35
2022-12-17T01:59:30.378Z,13.25
2022-12-17T02:02:16.059Z,11.88
2022-12-17T02:05:02.359Z,11.60
2022-12-17T02:08:13.649Z,12.80
2022-12-17T02:11:18.554Z,13.38
2022-12-17T02:14:29.230Z,12.65
2022-12-17T02:17:21.475Z,12.60
2022-12-17T02:20:43.188Z,12.95
2022-12-17T02:23:39.299Z,12.40
2022-12-17T02:26:49.667Z,10.98
2022-12-17T02:29:37.808Z,12.30
2022-12-17T02:32:26.058Z,12.98
2022-12-17T02:35:11.950Z,12.30
2022-12-17T02:37:57.648Z,12.45
2022-12-17T02:40:44.254Z,12.75
2022-12-17T02:43:30.141Z,12.40
2022-12-17T02:46:15.710Z,12.57
2022-12-17T02:49:02.088Z,11.95
2022-12-17T02:51:48.043Z,11.65
2022-12-17T02:54:33.574Z,11.02
2022-12-17T02:57:19.224Z,13.05
2022-12-17T03:00:04.851Z,12.43
2022-12-17T03:02:50.638Z,11.40
2022-12-17T03:05:45.093Z,11.45
2022-12-17T03:08:31.818Z,11.70
2022-12-17T03:11:17.571Z,12.18
2022-12-17T03:14:03.355Z,12.10
2022-12-17T03:16:49.114Z,13.48
2022-12-17T03:19:34.967Z,11.57
2022-12-17T03:22:23.517Z,11.90
2022-12-17T03:25:09.031Z,10.80
2022-12-17T03:27:54.547Z,12.07
2022-12-17T03:30:42.212Z,12.95
2022-12-17T03:33:31.002Z,12.38
2022-12-17T03:36:16.602Z,12.68
2022-12-17T03:39:02.326Z,10.48
2022-12-17T03:41:47.890Z,11.95
2022-12-17T03:44:33.475Z,11.02
2022-12-17T03:47:19.430Z,11.10
2022-12-17T03:50:04.905Z,13.05
2022-12-17T03:52:50.504Z,11.60
2022-12-17T03:55:43.510Z,11.90
2022-12-17T03:58:28.957Z,11.23
2022-12-17T04:01:14.744Z,11.10
2022-12-17T04:04:00.034Z,13.10
2022-12-17T04:06:45.614Z,13.15
2022-12-17T04:09:31.233Z,12.38
2022-12-17T04:12:16.453Z,12.02
2022-12-17T04:15:01.999Z,12.07
2022-12-17T04:17:47.363Z,11.68
2022-12-17T04:20:32.943Z,10.98
2022-12-17T04:23:18.465Z,11.48
2022-12-17T04:26:03.944Z,12.93
2022-12-17T04:28:49.472Z,11.65
2022-12-17T04:31:35.066Z,13.13
2022-12-17T04:34:20.415Z,11.70
2022-12-17T04:37:05.867Z,12.48
2022-12-17T04:39:51.502Z,13.35
2022-12-17T04:42:37.495Z,13.10
2022-12-17T04:45:23.599Z,13.82
2022-12-17T04:48:09.194Z,13.73
2022-12-17T04:50:54.760Z,13.27
2022-12-17T04:53:40.243Z,14.27
2022-12-17T04:56:25.839Z,14.70
2022-12-17T04:59:11.242Z,12.90
2022-12-17T05:01:56.894Z,13.60
2022-12-17T05:04:42.218Z,13.18
2022-12-17T05:07:27.623Z,13.27
2022-12-17T05:10:13.139Z,13.98
2022-12-17T05:12:58.688Z,14.80
2022-12-17T05:15:48.345Z,14.10
2022-12-17T05:18:37.099Z,13.75
2022-12-17T05:21:22.671Z,13.98
2022-12-17T05:24:08.046Z,14.60
2022-12-17T05:26:53.633Z,14.10
2022-12-17T05:29:39.552Z,12.80
2022-12-17T05:32:25.151Z,14.25
2022-12-17T05:35:10.659Z,14.00
2022-12-17T05:37:56.081Z,14.15
2022-12-17T05:40:41.559Z,13.63
2022-12-17T05:43:31.826Z,13.98
2022-12-17T05:46:17.357Z,13.48
2022-12-17T05:49:03.136Z,14.38
2022-12-17T05:51:48.587Z,13.20
2022-12-17T05:54:34.084Z,12.18
2022-12-17T05:57:19.693Z,13.90
2022-12-17T06:00:05.206Z,14.00
2022-12-17T06:02:50.888Z,14.05
2022-12-17T06:05:36.711Z,13.75
2022-12-17T06:08:27.200Z,13.73
2022-12-17T06:11:13.226Z,14.27
2022-12-17T06:13:58.799Z,12.88
2022-12-17T06:16:44.227Z,13.88
2022-12-17T06:19:29.950Z,13.43
2022-12-17T06:22:15.407Z,13.98
2022-12-17T06:25:01.048Z,13.10
2022-12-17T06:27:46.564Z,14.60
2022-12-17T06:30:32.023Z,12.63
2022-12-17T06:33:29.412Z,13.25
2022-12-17T06:36:21.977Z,12.82
2022-12-17T06:39:07.792Z,14.93
2022-12-17T06:41:54.785Z,13.23
2022-12-17T06:44:47.771Z,14.00
2022-12-17T06:47:33.324Z,13.90
2022-12-17T06:50:18.898Z,13.60
2022-12-17T06:53:04.482Z,14.15
2022-12-17T06:55:49.833Z,13.00
2022-12-17T06:58:35.300Z,12.23
2022-12-17T07:01:20.853Z,11.80
2022-12-17T07:04:06.241Z,12.07
2022-12-17T07:06:51.737Z,12.30
2022-12-17T07:09:37.178Z,13.20
2022-12-17T07:12:22.691Z,16.15
2022-12-17T07:15:08.085Z,13.48
2022-12-17T07:17:53.674Z,13.40
2022-12-17T07:20:39.294Z,13.10
2022-12-17T07:23:24.613Z,13.63
2022-12-17T07:26:10.196Z,13.40
2022-12-17T07:28:55.619Z,14.80
2022-12-17T07:31:41.249Z,15.50
2022-12-17T07:34:26.580Z,14.88
2022-12-17T07:37:14.955Z,14.50
2022-12-17T07:40:04.105Z,14.63
2022-12-17T07:42:49.512Z,13.85
2022-12-17T07:45:35.089Z,13.73
2022-12-17T07:48:20.655Z,14.40
2022-12-17T07:51:09.847Z,13.50
2022-12-17T07:53:55.960Z,14.40
2022-12-17T07:56:41.466Z,14.77
2022-12-17T07:59:27.050Z,15.10
2022-12-17T08:02:12.712Z,15.70
2022-12-17T08:04:58.352Z,13.65
2022-12-17T08:07:44.837Z,13.90
2022-12-17T08:10:30.599Z,14.13
2022-12-17T08:13:22.466Z,16.25
2022-12-17T08:16:16.480Z,15.35
2022-12-17T08:19:02.294Z,14.65
2022-12-17T08:21:47.662Z,15.43
2022-12-17T08:24:33.216Z,15.13
2022-12-17T08:27:18.881Z,14.75
2022-12-17T08:30:04.425Z,13.75
2022-12-17T08:32:50.262Z,13.68
2022-12-17T08:35:35.667Z,14.45
2022-12-17T08:38:24.326Z,12.00
2022-12-17T08:41:09.983Z,13.48
2022-12-17T08:43:55.410Z,12.88
2022-12-17T08:48:57.017Z,13.38
2022-12-17T08:51:44.119Z,12.35
2022-12-17T08:54:30.193Z,14.00
2022-12-17T08:57:27.027Z,13.80
2022-12-17T09:00:16.805Z,13.45
2022-12-17T09:03:03.137Z,12.52
2022-12-17T09:05:48.746Z,12.70
2022-12-17T09:08:34.135Z,12.75
2022-12-17T09:11:20.380Z,12.35
2022-12-17T09:14:05.699Z,11.77
2022-12-17T09:16:51.307Z,13.23
2022-12-17T09:19:36.468Z,15.45
2022-12-17T09:22:21.805Z,16.75
2022-12-17T09:25:07.351Z,15.73
2022-12-17T09:27:52.820Z,14.18
2022-12-17T09:30:38.510Z,13.70
2022-12-17T09:33:24.207Z,15.00
2022-12-17T09:36:09.449Z,15.52
2022-12-17T09:38:54.960Z,16.67
2022-12-17T09:41:56.626Z,16.40
2022-12-17T09:45:15.763Z,15.13
2022-12-17T09:48:15.477Z,14.77
2022-12-17T09:51:01.437Z,14.95
2022-12-17T09:54:07.649Z,14.25
2022-12-17T09:56:55.280Z,12.98
2022-12-17T09:59:53.069Z,13.77
2022-12-17T10:02:44.483Z,12.45
2022-12-17T10:05:56.060Z,12.43
2022-12-17T10:08:41.641Z,11.82
2022-12-17T10:11:49.130Z,12.68
2022-12-17T10:14:39.446Z,11.77
2022-12-17T10:17:36.475Z,12.02
2022-12-17T10:20:35.663Z,12.23
2022-12-17T10:23:21.151Z,13.43
2022-12-17T10:26:12.743Z,12.82
2022-12-17T10:28:58.917Z,11.95
2022-12-17T10:31:49.164Z,13.43
2022-12-17T10:34:39.680Z,13.10
2022-12-17T10:37:37.708Z,12.57
2022-12-17T10:40:51.571Z,12.60
2022-12-17T10:43:56.825Z,12.65
2022-12-17T10:46:51.534Z,13.80
2022-12-17T10:49:43.854Z,13.18
2022-12-17T10:52:48.843Z,12.55
2022-12-17T10:55:44.606Z,12.27
2022-12-17T10:58:38.239Z,11.70
2022-12-17T11:01:29.600Z,13.02
2022-12-17T11:04:17.449Z,13.10
2022-12-17T11:07:08.360Z,11.63
2022-12-17T11:13:20.804Z,14.05
2022-12-17T11:16:11.908Z,13.10
2022-12-17T11:19:44.974Z,11.93
2022-12-17T11:22:53.556Z,11.73
2022-12-17T11:26:24.981Z,12.63
2022-12-17T11:29:10.931Z,11.50
2022-12-17T11:32:55.779Z,12.85
2022-12-17T11:36:06.378Z,12.20
2022-12-17T11:39:04.193Z,11.63
2022-12-17T11:42:15.597Z,12.95
2022-12-17T11:45:16.041Z,12.45
2022-12-17T11:48:18.283Z,8.75
2022-12-17T11:51:16.169Z,12.45
2022-12-17T11:54:22.447Z,13.32
2022-12-17T11:57:29.520Z,15.77
2022-12-17T12:00:37.477Z,14.27
2022-12-17T12:04:12.255Z,15.75
2022-12-17T12:07:06.326Z,13.07
2022-12-17T12:10:30.181Z,14.93
2022-12-17T12:14:39.802Z,14.15
2022-12-17T12:17:58.262Z,13.82
2022-12-17T12:21:06.281Z,14.63
2022-12-17T12:24:13.000Z,15.77
2022-12-17T12:27:28.108Z,15.30
2022-12-17T12:30:35.351Z,14.82
2022-12-17T12:34:15.303Z,15.77
2022-12-17T12:37:04.980Z,15.40
2022-12-17T12:40:06.095Z,13.98
2022-12-17T12:43:03.584Z,16.42
2022-12-17T12:46:17.492Z,16.10
2022-12-17T12:49:40.544Z,14.50
2022-12-17T12:52:37.133Z,16.33
2022-12-17T12:55:22.692Z,15.13
2022-12-17T12:58:22.478Z,16.60
2022-12-17T13:01:07.991Z,17.10
2022-12-17T13:04:03.865Z,16.23
2022-12-17T13:06:46.330Z,18.13
2022-12-17T13:09:16.088Z,16.90
2022-12-17T13:11:56.969Z,17.65
2022-12-17T13:14:47.385Z,17.60
2022-12-17T13:17:17.175Z,17.98
2022-12-17T13:20:07.111Z,15.93
2022-12-17T13:22:34.215Z,17.40
2022-12-17T13:25:23.386Z,16.52
2022-12-17T13:27:51.043Z,18.25
2022-12-17T13:30:17.900Z,17.80
2022-12-17T13:32:48.783Z,17.85
2022-12-17T13:35:43.345Z,19.10
2022-12-17T13:38:34.821Z,18.52
2022-12-17T13:41:16.201Z,17.40
2022-12-17T13:43:59.053Z,18.02
2022-12-17T13:46:34.436Z,19.05
2022-12-17T13:49:04.870Z,18.40
2022-12-17T13:51:34.800Z,19.70
2022-12-17T13:54:04.497Z,17.60
2022-12-17T13:56:37.706Z,18.25
2022-12-17T13:59:09.299Z,18.65
2022-12-17T14:01:47.069Z,17.60
2022-12-17T14:04:26.983Z,17.73
2022-12-17T14:06:59.067Z,18.23
2022-12-17T14:09:37.198Z,19.02
2022-12-17T14:12:22.120Z,20.13
2022-12-17T14:15:22.218Z,17.83
2022-12-17T14:17:50.547Z,18.83
2022-12-17T14:20:23.935Z,19.23
2022-12-17T14:22:55.941Z,18.50
2022-12-17T14:25:36.025Z,19.15
2022-12-17T14:28:31.516Z,18.55
2022-12-17T14:31:26.598Z,18.45
2022-12-17T14:34:13.244Z,17.65
2022-12-17T14:36:44.288Z,18.17
2022-12-17T14:39:24.910Z,18.65
2022-12-17T14:42:11.659Z,20.45
2022-12-17T14:45:22.345Z,19.00
2022-12-17T14:48:04.185Z,18.98
2022-12-17T14:50:35.653Z,18.67
2022-12-17T14:53:26.110Z,19.48
2022-12-17T14:55:58.847Z,20.92
2022-12-17T14:58:27.667Z,27.20
2022-12-17T15:01:11.177Z,21.77
2022-12-17T15:03:46.793Z,21.73
2022-12-17T15:06:18.525Z,21.98
2022-12-17T15:08:49.235Z,22.10
2022-12-17T15:13:50.327Z,19.58
2022-12-17T15:16:21.462Z,20.88
2022-12-17T15:18:48.322Z,19.98
2022-12-17T15:21:17.355Z,22.80
2022-12-17T15:23:45.683Z,21.58
2022-12-17T15:26:15.081Z,19.83
2022-12-17T15:28:42.970Z,19.67
2022-12-17T15:31:14.891Z,20.70
2022-12-17T15:33:42.374Z,20.58
2022-12-17T15:36:13.483Z,19.63
2022-12-17T15:38:40.714Z,21.13
2022-12-17T15:41:26.659Z,22.42
2022-12-17T15:43:53.481Z,19.65
2022-12-17T15:46:20.358Z,20.48
2022-12-17T15:48:50.404Z,21.58
2022-12-17T15:51:20.010Z,19.92
2022-12-17T15:53:48.140Z,20.45
2022-12-17T15:56:25.046Z,21.98
2022-12-17T15:58:53.018Z,21.77
2022-12-17T16:01:20.274Z,23.58
2022-12-17T16:03:47.312Z,22.50
2022-12-17T16:06:14.396Z,23.30
2022-12-17T16:08:41.344Z,23.77
2022-12-17T16:11:10.194Z,21.35
2022-12-17T16:13:38.227Z,23.35
2022-12-17T16:16:07.078Z,21.75
2022-12-17T16:18:35.819Z,23.52
2022-12-17T16:21:04.955Z,20.35
2022-12-17T16:23:32.906Z,20.48
2022-12-17T16:26:03.304Z,20.70
2022-12-17T16:28:30.250Z,19.05
2022-12-17T16:31:06.997Z,18.50
2022-12-17T16:33:42.216Z,19.17
2022-12-17T16:36:15.432Z,18.30
2022-12-17T16:38:45.400Z,16.25
2022-12-17T16:41:13.274Z,17.23
2022-12-17T16:43:40.442Z,16.98
2022-12-17T16:46:33.380Z,16.45
2022-12-17T16:49:10.502Z,13.65
2022-12-17T16:51:37.898Z,14.52
2022-12-17T16:54:13.740Z,13.65
2022-12-17T16:56:41.475Z,14.48
2022-12-17T16:59:09.958Z,13.75
2022-12-17T17:01:39.551Z,14.23
2022-12-17T17:04:08.911Z,13.98
2022-12-17T17:06:45.478Z,14.77
2022-12-17T17:09:14.052Z,15.80
2022-12-17T17:11:41.200Z,13.13
2022-12-17T17:14:09.098Z,13.05
2022-12-17T17:16:36.761Z,14.07
2022-12-17T17:19:05.948Z,15.18
2022-12-17T17:21:38.844Z,13.43
2022-12-17T17:24:21.384Z,14.07
2022-12-17T17:26:50.685Z,15.50
2022-12-17T17:29:18.666Z,15.50
2022-12-17T17:34:32.480Z,17.63
2022-12-17T17:36:59.345Z,16.85
2022-12-17T17:39:27.229Z,17.08
2022-12-17T17:41:54.109Z,17.58
2022-12-17T17:44:21.032Z,17.65
2022-12-17T17:46:48.011Z,18.65
2022-12-17T17:49:15.115Z,18.83
2022-12-17T17:54:31.779Z,19.00
2022-12-17T17:56:58.617Z,19.40
2022-12-17T17:59:32.808Z,19.75
2022-12-17T18:02:02.489Z,18.15
2022-12-17T18:04:29.889Z,21.02
2022-12-17T18:09:43.647Z,22.33
2022-12-17T18:12:28.916Z,23.27
2022-12-17T18:17:44.266Z,21.73
2022-12-17T18:20:12.228Z,20.38
2022-12-17T18:22:39.208Z,19.67
2022-12-17T18:25:06.286Z,24.27
2022-12-17T18:27:33.356Z,22.95
2022-12-17T18:30:00.703Z,19.67
2022-12-17T18:32:27.838Z,23.75
2022-12-17T18:34:54.793Z,20.67
2022-12-17T18:37:21.842Z,23.55
2022-12-17T18:40:00.674Z,28.27
2022-12-17T18:42:45.961Z,25.88
2022-12-17T18:45:12.876Z,21.23
2022-12-17T18:47:39.846Z,23.48
2022-12-17T18:50:07.288Z,19.02
2022-12-17T18:52:34.133Z,21.65
2022-12-17T18:55:01.045Z,20.08
2022-12-17T18:57:27.960Z,20.65
2022-12-17T18:59:54.810Z,19.17
2022-12-17T19:02:21.881Z,20.42
2022-12-17T19:04:48.954Z,18.35
2022-12-17T19:07:16.010Z,18.80
2022-12-17T19:09:43.234Z,19.17
2022-12-17T19:12:10.340Z,19.92
2022-12-17T19:14:37.676Z,30.65
2022-12-17T19:17:05.943Z,24.50
2022-12-17T19:19:33.629Z,20.45
2022-12-17T19:22:00.719Z,18.75
2022-12-17T19:24:28.292Z,55.70
2022-12-17T19:27:00.627Z,27.27
2022-12-17T19:29:27.705Z,27.48
2022-12-17T19:31:55.067Z,22.52
2022-12-17T19:34:22.470Z,20.15
2022-12-17T19:36:49.563Z,20.27
2022-12-17T19:39:19.541Z,31.40
2022-12-17T19:41:46.761Z,32.90
2022-12-17T19:44:16.671Z,22.90
2022-12-17T19:46:44.472Z,21.52
2022-12-17T19:49:16.651Z,30.95
2022-12-17T19:51:44.681Z,27.23
2022-12-17T19:54:14.872Z,21.80
2022-12-17T19:56:44.691Z,20.58
2022-12-17T19:59:13.444Z,20.33
2022-12-17T20:01:49.599Z,18.73
2022-12-17T20:04:17.000Z,21.58
2022-12-17T20:06:45.230Z,26.75
2022-12-17T20:09:14.137Z,21.50
2022-12-17T20:11:41.475Z,19.17
2022-12-17T20:14:13.184Z,18.00
2022-12-17T20:16:44.309Z,18.02
2022-12-17T20:19:15.643Z,24.30
2022-12-17T20:21:42.686Z,22.27
2022-12-17T20:24:11.364Z,25.45
2022-12-17T20:26:39.438Z,24.65
2022-12-17T20:29:07.380Z,20.85
2022-12-17T20:31:49.726Z,18.23
2022-12-17T20:34:19.105Z,20.95
2022-12-17T20:36:49.679Z,21.55
2022-12-17T20:39:20.719Z,18.17
2022-12-17T20:41:51.565Z,15.65
2022-12-17T20:44:18.514Z,16.10
2022-12-17T20:46:45.657Z,14.27
2022-12-17T20:49:14.655Z,13.52
2022-12-17T20:51:42.368Z,13.75
2022-12-17T20:54:14.005Z,13.15
2022-12-17T20:56:42.494Z,13.85
2022-12-17T20:59:16.629Z,11.85
2022-12-17T21:01:45.621Z,12.85
2022-12-17T21:04:15.406Z,12.43
2022-12-17T21:06:46.556Z,13.90
2022-12-17T21:09:15.715Z,12.73
2022-12-17T21:11:42.987Z,12.63
2022-12-17T21:14:16.888Z,12.52
2022-12-17T21:16:46.500Z,11.77
2022-12-17T21:19:18.583Z,12.63
2022-12-17T21:21:45.882Z,14.00
2022-12-17T21:24:12.830Z,12.88
2022-12-17T21:26:42.859Z,12.85
2022-12-17T21:29:10.688Z,13.13
2022-12-17T21:31:49.561Z,12.75
2022-12-17T21:34:22.587Z,13.40
2022-12-17T21:36:50.501Z,12.23
2022-12-17T21:39:19.654Z,13.27
2022-12-17T21:42:06.603Z,12.02
2022-12-17T21:44:33.731Z,12.65
2022-12-17T21:47:00.735Z,12.95
2022-12-17T21:49:27.615Z,12.40
2022-12-17T21:51:55.612Z,12.90
2022-12-17T21:54:22.440Z,13.32
2022-12-17T21:56:49.477Z,12.25
2022-12-17T21:59:16.784Z,13.13
2022-12-17T22:01:43.980Z,12.45
2022-12-17T22:04:11.185Z,11.45
2022-12-17T22:06:47.694Z,12.80
2022-12-17T22:09:21.955Z,10.68
2022-12-17T22:12:20.504Z,11.80
2022-12-17T22:14:47.695Z,10.55
2022-12-17T22:17:14.604Z,10.98
2022-12-17T22:19:41.766Z,11.98
2022-12-17T22:22:08.640Z,12.57
2022-12-17T22:24:36.493Z,13.00
2022-12-17T22:27:05.123Z,14.38
2022-12-17T22:29:54.421Z,12.27
2022-12-17T22:32:39.914Z,12.55
2022-12-17T22:36:57.311Z,11.93
2022-12-17T22:43:07.648Z,11.70
2022-12-17T22:44:28.338Z,13.10
2022-12-17T22:44:51.467Z,12.15
2022-12-17T22:46:19.038Z,12.82
2022-12-17T22:48:46.995Z,12.48
2022-12-17T22:51:22.597Z,14.32
2022-12-17T22:53:55.721Z,11.77
2022-12-17T22:56:41.535Z,13.50
2022-12-17T22:59:19.332Z,11.27
2022-12-17T23:01:46.867Z,12.60
2022-12-17T23:04:16.084Z,11.68
2022-12-17T23:06:45.562Z,12.35
2022-12-17T23:09:15.180Z,13.50
2022-12-17T23:11:42.077Z,13.27
2022-12-17T23:14:09.387Z,11.98
2022-12-17T23:16:38.956Z,13.02
2022-12-17T23:19:07.499Z,15.63
2022-12-17T23:21:35.408Z,12.57
2022-12-17T23:24:03.382Z,12.70
2022-12-17T23:26:35.443Z,11.80
2022-12-17T23:29:07.311Z,12.90
2022-12-17T23:31:40.321Z,12.48
2022-12-17T23:34:08.215Z,13.18
2022-12-17T23:36:36.273Z,13.40
2022-12-17T23:39:04.157Z,12.18
2022-12-17T23:41:31.935Z,12.27
2022-12-17T23:43:59.712Z,11.27
2022-12-17T23:46:30.200Z,12.20
2022-12-17T23:48:57.552Z,12.68
2022-12-17T23:51:25.506Z,12.23
2022-12-17T23:53:52.331Z,10.15
2022-12-17T23:56:28.722Z,12.40
2022-12-17T23:58:59.416Z,11.38
